createdAt,value
2019-01-15T00:00:30.416Z,997.08
2019-01-15T00:01:30.410Z,997.06
2019-01-15T00:02:30.396Z,996.98
2019-01-15T00:03:30.393Z,997.02
2019-01-15T00:04:30.373Z,997.00
2019-01-15T00:05:30.365Z,996.99
2019-01-15T00:06:30.353Z,997.00
2019-01-15T00:07:30.339Z,996.98
2019-01-15T00:08:30.332Z,996.90
2019-01-15T00:09:30.325Z,996.94
2019-01-15T00:10:30.309Z,996.95
2019-01-15T00:11:30.299Z,996.95
2019-01-15T00:12:30.289Z,996.97
2019-01-15T00:13:30.282Z,996.94
2019-01-15T00:14:30.268Z,996.88
2019-01-15T00:15:30.258Z,996.89
2019-01-15T00:16:30.246Z,996.90
2019-01-15T00:17:30.241Z,996.88
2019-01-15T00:18:30.226Z,996.87
2019-01-15T00:19:30.217Z,996.84
2019-01-15T00:20:30.204Z,996.85
2019-01-15T00:21:30.193Z,996.81
2019-01-15T00:22:30.192Z,996.87
2019-01-15T00:23:30.174Z,996.90
2019-01-15T00:24:30.164Z,996.89
2019-01-15T00:25:30.150Z,996.92
2019-01-15T00:26:30.147Z,996.87
2019-01-15T00:27:30.133Z,996.93
2019-01-15T00:28:30.123Z,996.92
2019-01-15T00:29:30.116Z,996.94
2019-01-15T00:30:30.100Z,996.92
2019-01-15T00:31:30.106Z,996.92
2019-01-15T00:32:30.083Z,996.91
2019-01-15T00:33:30.073Z,996.93
2019-01-15T00:34:30.059Z,996.93
2019-01-15T00:35:30.048Z,996.96
2019-01-15T00:36:30.036Z,996.94
2019-01-15T00:37:30.028Z,996.94
2019-01-15T00:38:30.017Z,996.98
2019-01-15T00:39:30.006Z,996.99
2019-01-15T00:40:29.995Z,997.00
2019-01-15T00:41:29.987Z,997.04
2019-01-15T00:42:29.974Z,997.05
2019-01-15T00:43:29.961Z,997.09
2019-01-15T00:44:29.956Z,997.10
2019-01-15T00:45:29.946Z,997.10
2019-01-15T00:46:29.930Z,997.12
2019-01-15T00:47:29.921Z,997.15
2019-01-15T00:48:29.910Z,997.18
2019-01-15T00:49:29.902Z,997.16
2019-01-15T00:50:29.899Z,997.18
2019-01-15T00:51:29.879Z,997.21
2019-01-15T00:52:29.871Z,997.20
2019-01-15T00:53:29.856Z,997.19
2019-01-15T00:54:29.857Z,997.20
2019-01-15T00:55:29.836Z,997.25
2019-01-15T00:56:29.826Z,997.28
2019-01-15T00:57:29.815Z,997.28
2019-01-15T00:58:29.805Z,997.30
2019-01-15T00:59:29.800Z,997.33
2019-01-15T01:00:29.789Z,997.31
2019-01-15T01:01:29.776Z,997.28
2019-01-15T01:02:29.761Z,997.32
2019-01-15T01:03:29.753Z,997.29
2019-01-15T01:04:29.749Z,997.34
2019-01-15T01:05:29.730Z,997.26
2019-01-15T01:06:29.722Z,997.31
2019-01-15T01:07:29.712Z,997.33
2019-01-15T01:08:29.703Z,997.41
2019-01-15T01:09:29.693Z,997.35
2019-01-15T01:10:29.679Z,997.38
2019-01-15T01:11:29.671Z,997.39
2019-01-15T01:12:29.658Z,997.32
2019-01-15T01:13:29.686Z,997.36
2019-01-15T01:14:29.638Z,997.36
2019-01-15T01:15:29.627Z,997.34
2019-01-15T01:16:29.617Z,997.37
2019-01-15T01:17:29.605Z,997.37
2019-01-15T01:18:29.594Z,997.36
2019-01-15T01:19:29.584Z,997.32
2019-01-15T01:20:29.574Z,997.32
2019-01-15T01:21:29.563Z,997.32
2019-01-15T01:22:29.558Z,997.29
2019-01-15T01:23:29.547Z,997.32
2019-01-15T01:24:29.533Z,997.35
2019-01-15T01:25:29.521Z,997.36
2019-01-15T01:26:29.513Z,997.35
2019-01-15T01:27:29.505Z,997.39
2019-01-15T01:28:29.494Z,997.40
2019-01-15T01:29:29.481Z,997.37
2019-01-15T01:30:29.471Z,997.39
2019-01-15T01:31:29.460Z,997.40
2019-01-15T01:32:29.451Z,997.41
2019-01-15T01:33:29.441Z,997.43
2019-01-15T01:34:29.426Z,997.43
2019-01-15T01:35:29.415Z,997.43
2019-01-15T01:36:29.405Z,997.41
2019-01-15T01:37:29.396Z,997.42
2019-01-15T01:38:29.386Z,997.43
2019-01-15T01:39:29.376Z,997.47
2019-01-15T01:40:29.362Z,997.51
2019-01-15T01:41:29.355Z,997.55
2019-01-15T01:42:29.778Z,997.52
2019-01-15T01:43:29.331Z,997.51
2019-01-15T01:44:29.324Z,997.50
2019-01-15T01:45:29.311Z,997.54
2019-01-15T01:46:29.300Z,997.54
2019-01-15T01:47:29.286Z,997.56
2019-01-15T01:48:29.280Z,997.58
2019-01-15T01:49:29.267Z,997.55
2019-01-15T01:50:29.262Z,997.55
2019-01-15T01:51:29.248Z,997.57
2019-01-15T01:52:29.236Z,997.56
2019-01-15T01:53:29.227Z,997.56
2019-01-15T01:54:29.216Z,997.52
2019-01-15T01:55:29.210Z,997.56
2019-01-15T01:56:29.194Z,997.57
2019-01-15T01:57:29.186Z,997.54
2019-01-15T01:58:29.179Z,997.53
2019-01-15T01:59:29.163Z,997.54
2019-01-15T02:00:29.154Z,997.55
2019-01-15T02:01:29.148Z,997.60
2019-01-15T02:02:29.131Z,997.57
2019-01-15T02:03:29.120Z,997.60
2019-01-15T02:04:29.110Z,997.59
2019-01-15T02:05:29.101Z,997.59
2019-01-15T02:06:29.092Z,997.59
2019-01-15T02:07:29.080Z,997.59
2019-01-15T02:08:29.072Z,997.60
2019-01-15T02:09:29.061Z,997.61
2019-01-15T02:10:29.050Z,997.59
2019-01-15T02:11:29.038Z,997.62
2019-01-15T02:12:29.027Z,997.61
2019-01-15T02:13:29.017Z,997.61
2019-01-15T02:14:29.005Z,997.63
2019-01-15T02:15:28.996Z,997.66
2019-01-15T02:16:28.983Z,997.65
2019-01-15T02:17:28.973Z,997.62
2019-01-15T02:18:28.967Z,997.66
2019-01-15T02:19:28.951Z,997.67
2019-01-15T02:20:28.942Z,997.65
2019-01-15T02:21:28.929Z,997.68
2019-01-15T02:22:28.924Z,997.64
2019-01-15T02:23:28.915Z,997.68
2019-01-15T02:24:28.899Z,997.68
2019-01-15T02:25:28.892Z,997.68
2019-01-15T02:26:28.877Z,997.66
2019-01-15T02:27:28.869Z,997.69
2019-01-15T02:28:28.857Z,997.64
2019-01-15T02:29:28.846Z,997.67
2019-01-15T02:30:28.842Z,997.67
2019-01-15T02:31:28.827Z,997.64
2019-01-15T02:32:28.813Z,997.62
2019-01-15T02:33:28.809Z,997.66
2019-01-15T02:34:28.793Z,997.63
2019-01-15T02:35:28.779Z,997.61
2019-01-15T02:36:28.772Z,997.62
2019-01-15T02:37:28.768Z,997.61
2019-01-15T02:38:28.750Z,997.61
2019-01-15T02:39:28.740Z,997.67
2019-01-15T02:40:28.730Z,997.62
2019-01-15T02:41:28.719Z,997.62
2019-01-15T02:42:28.722Z,997.62
2019-01-15T02:43:28.699Z,997.62
2019-01-15T02:44:28.688Z,997.64
2019-01-15T02:45:28.678Z,997.62
2019-01-15T02:46:28.669Z,997.61
2019-01-15T02:47:28.660Z,997.70
2019-01-15T02:48:28.651Z,997.68
2019-01-15T02:49:28.636Z,997.66
2019-01-15T02:50:28.626Z,997.68
2019-01-15T02:51:28.614Z,997.66
2019-01-15T02:52:28.602Z,997.70
2019-01-15T02:53:28.593Z,997.66
2019-01-15T02:54:28.579Z,997.68
2019-01-15T02:55:28.571Z,997.71
2019-01-15T02:56:28.559Z,997.68
2019-01-15T02:57:28.551Z,997.70
2019-01-15T02:58:28.541Z,997.73
2019-01-15T02:59:28.530Z,997.75
2019-01-15T03:00:28.524Z,997.75
2019-01-15T03:01:28.514Z,997.71
2019-01-15T03:02:28.502Z,997.80
2019-01-15T03:03:28.487Z,997.79
2019-01-15T03:04:28.476Z,997.83
2019-01-15T03:05:28.466Z,997.81
2019-01-15T03:06:28.486Z,997.79
2019-01-15T03:07:28.444Z,997.77
2019-01-15T03:08:28.433Z,997.81
2019-01-15T03:09:28.425Z,997.80
2019-01-15T03:10:28.414Z,997.82
2019-01-15T03:11:28.404Z,997.81
2019-01-15T03:12:28.392Z,997.83
2019-01-15T03:13:28.381Z,997.84
2019-01-15T03:14:28.380Z,997.87
2019-01-15T03:15:28.359Z,997.83
2019-01-15T03:16:28.349Z,997.82
2019-01-15T03:17:28.338Z,997.83
2019-01-15T03:18:28.330Z,997.78
2019-01-15T03:19:28.318Z,997.80
2019-01-15T03:20:28.306Z,997.75
2019-01-15T03:21:28.293Z,997.75
2019-01-15T03:22:28.287Z,997.77
2019-01-15T03:23:28.276Z,997.75
2019-01-15T03:24:28.264Z,997.80
2019-01-15T03:25:28.264Z,997.81
2019-01-15T03:26:28.243Z,997.84
2019-01-15T03:27:28.233Z,997.81
2019-01-15T03:28:28.226Z,997.82
2019-01-15T03:29:28.228Z,997.80
2019-01-15T03:30:28.203Z,997.80
2019-01-15T03:31:28.195Z,997.77
2019-01-15T03:32:28.178Z,997.76
2019-01-15T03:33:28.171Z,997.74
2019-01-15T03:34:28.160Z,997.73
2019-01-15T03:35:28.161Z,997.73
2019-01-15T03:36:28.139Z,997.74
2019-01-15T03:37:28.127Z,997.74
2019-01-15T03:38:28.119Z,997.75
2019-01-15T03:39:28.104Z,997.73
2019-01-15T03:40:28.095Z,997.69
2019-01-15T03:41:28.085Z,997.77
2019-01-15T03:42:28.129Z,997.75
2019-01-15T03:43:28.064Z,997.77
2019-01-15T03:44:28.057Z,997.73
2019-01-15T03:45:28.080Z,997.76
2019-01-15T03:46:28.032Z,997.73
2019-01-15T03:47:28.020Z,997.72
2019-01-15T03:48:28.010Z,997.68
2019-01-15T03:49:28.002Z,997.67
2019-01-15T03:50:27.987Z,997.63
2019-01-15T03:51:27.983Z,997.64
2019-01-15T03:52:27.969Z,997.63
2019-01-15T03:53:27.967Z,997.64
2019-01-15T03:54:27.948Z,997.65
2019-01-15T03:55:27.936Z,997.65
2019-01-15T03:56:27.925Z,997.62
2019-01-15T03:57:27.914Z,997.61
2019-01-15T03:58:27.907Z,997.56
2019-01-15T03:59:27.894Z,997.54
2019-01-15T04:00:27.890Z,997.61
2019-01-15T04:01:27.895Z,997.61
2019-01-15T04:02:27.860Z,997.64
2019-01-15T04:03:27.856Z,997.64
2019-01-15T04:04:27.840Z,997.64
2019-01-15T04:05:27.831Z,997.64
2019-01-15T04:06:27.823Z,997.67
2019-01-15T04:07:27.816Z,997.65
2019-01-15T04:08:27.798Z,997.67
2019-01-15T04:09:27.800Z,997.67
2019-01-15T04:10:27.775Z,997.64
2019-01-15T04:11:27.765Z,997.73
2019-01-15T04:12:27.756Z,997.74
2019-01-15T04:13:27.744Z,997.75
2019-01-15T04:14:27.735Z,997.74
2019-01-15T04:15:27.728Z,997.71
2019-01-15T04:16:27.714Z,997.67
2019-01-15T04:17:27.704Z,997.62
2019-01-15T04:18:27.700Z,997.61
2019-01-15T04:19:27.700Z,997.55
2019-01-15T04:20:27.693Z,997.53
2019-01-15T04:21:27.694Z,997.44
2019-01-15T04:22:27.650Z,997.38
2019-01-15T04:23:27.637Z,997.35
2019-01-15T04:24:27.629Z,997.41
2019-01-15T04:25:27.640Z,997.41
2019-01-15T04:26:27.618Z,997.39
2019-01-15T04:27:27.622Z,997.39
2019-01-15T04:28:27.587Z,997.37
2019-01-15T04:29:27.602Z,997.35
2019-01-15T04:30:27.564Z,997.35
2019-01-15T04:31:27.581Z,997.28
2019-01-15T04:32:27.545Z,997.30
2019-01-15T04:33:27.537Z,997.31
2019-01-15T04:34:27.527Z,997.29
2019-01-15T04:35:27.512Z,997.28
2019-01-15T04:36:27.501Z,997.31
2019-01-15T04:37:27.493Z,997.36
2019-01-15T04:38:27.481Z,997.35
2019-01-15T04:39:27.517Z,997.35
2019-01-15T04:40:27.497Z,997.38
2019-01-15T04:41:27.449Z,997.36
2019-01-15T04:42:27.442Z,997.34
2019-01-15T04:43:27.439Z,997.35
2019-01-15T04:44:27.416Z,997.35
2019-01-15T04:45:27.408Z,997.34
2019-01-15T04:46:27.396Z,997.32
2019-01-15T04:47:27.403Z,997.31
2019-01-15T04:48:27.376Z,997.29
2019-01-15T04:49:27.364Z,997.35
2019-01-15T04:50:27.353Z,997.29
2019-01-15T04:51:27.342Z,997.34
2019-01-15T04:52:27.339Z,997.37
2019-01-15T04:53:27.321Z,997.38
2019-01-15T04:54:27.315Z,997.34
2019-01-15T04:55:27.300Z,997.38
2019-01-15T04:56:27.293Z,997.37
2019-01-15T04:57:27.280Z,997.36
2019-01-15T04:58:27.269Z,997.42
2019-01-15T04:59:27.261Z,997.45
2019-01-15T05:00:27.247Z,997.39
2019-01-15T05:01:27.255Z,997.40
2019-01-15T05:02:27.230Z,997.37
2019-01-15T05:03:27.215Z,997.40
2019-01-15T05:04:27.203Z,997.38
2019-01-15T05:05:27.193Z,997.41
2019-01-15T05:06:27.183Z,997.41
2019-01-15T05:07:27.170Z,997.42
2019-01-15T05:08:27.163Z,997.46
2019-01-15T05:09:27.150Z,997.50
2019-01-15T05:10:27.148Z,997.48
2019-01-15T05:11:27.125Z,997.48
2019-01-15T05:12:27.116Z,997.51
2019-01-15T05:13:27.486Z,997.51
2019-01-15T05:14:27.095Z,997.46
2019-01-15T05:15:27.091Z,997.49
2019-01-15T05:16:27.071Z,997.46
2019-01-15T05:17:27.061Z,997.46
2019-01-15T05:18:27.049Z,997.43
2019-01-15T05:19:27.042Z,997.47
2019-01-15T05:20:27.030Z,997.48
2019-01-15T05:21:27.021Z,997.51
2019-01-15T05:22:27.005Z,997.54
2019-01-15T05:23:27.006Z,997.53
2019-01-15T05:24:26.983Z,997.53
2019-01-15T05:25:26.975Z,997.50
2019-01-15T05:26:28.289Z,997.52
2019-01-15T05:27:26.953Z,997.54
2019-01-15T05:28:26.943Z,997.55
2019-01-15T05:29:26.931Z,997.57
2019-01-15T05:30:26.922Z,997.61
2019-01-15T05:31:26.906Z,997.57
2019-01-15T05:32:26.912Z,997.53
2019-01-15T05:33:26.888Z,997.57
2019-01-15T05:34:26.876Z,997.54
2019-01-15T05:35:26.867Z,997.54
2019-01-15T05:36:26.854Z,997.48
2019-01-15T05:37:26.851Z,997.46
2019-01-15T05:38:26.839Z,997.43
2019-01-15T05:39:26.822Z,997.44
2019-01-15T05:40:26.810Z,997.49
2019-01-15T05:41:26.802Z,997.44
2019-01-15T05:42:26.789Z,997.40
2019-01-15T05:43:26.778Z,997.40
2019-01-15T05:44:26.769Z,997.42
2019-01-15T05:45:26.758Z,997.42
2019-01-15T05:46:26.754Z,997.41
2019-01-15T05:47:26.735Z,997.45
2019-01-15T05:48:26.728Z,997.40
2019-01-15T05:49:26.716Z,997.40
2019-01-15T05:50:26.710Z,997.46
2019-01-15T05:51:26.692Z,997.46
2019-01-15T05:52:26.682Z,997.42
2019-01-15T05:53:26.672Z,997.41
2019-01-15T05:54:26.671Z,997.45
2019-01-15T05:55:26.652Z,997.42
2019-01-15T05:56:26.646Z,997.41
2019-01-15T05:57:26.629Z,997.46
2019-01-15T05:58:26.619Z,997.45
2019-01-15T05:59:26.607Z,997.45
2019-01-15T06:00:26.603Z,997.44
2019-01-15T06:01:26.586Z,997.36
2019-01-15T06:02:26.576Z,997.35
2019-01-15T06:03:26.564Z,997.42
2019-01-15T06:04:26.557Z,997.42
2019-01-15T06:05:26.552Z,997.45
2019-01-15T06:06:26.534Z,997.48
2019-01-15T06:07:33.492Z,997.44
2019-01-15T06:08:26.510Z,997.46
2019-01-15T06:09:26.506Z,997.42
2019-01-15T06:10:26.490Z,997.39
2019-01-15T06:11:26.537Z,997.37
2019-01-15T06:12:26.469Z,997.37
2019-01-15T06:13:26.460Z,997.33
2019-01-15T06:14:26.450Z,997.33
2019-01-15T06:15:26.438Z,997.33
2019-01-15T06:16:26.432Z,997.40
2019-01-15T06:17:26.414Z,997.37
2019-01-15T06:18:26.407Z,997.38
2019-01-15T06:19:26.394Z,997.42
2019-01-15T06:20:26.385Z,997.36
2019-01-15T06:21:26.376Z,997.36
2019-01-15T06:22:26.365Z,997.29
2019-01-15T06:23:26.358Z,997.24
2019-01-15T06:24:26.340Z,997.26
2019-01-15T06:25:26.364Z,997.21
2019-01-15T06:26:26.320Z,997.22
2019-01-15T06:27:26.309Z,997.25
2019-01-15T06:28:26.304Z,997.28
2019-01-15T06:29:26.288Z,997.23
2019-01-15T06:30:26.285Z,997.23
2019-01-15T06:31:26.266Z,997.25
2019-01-15T06:32:26.261Z,997.25
2019-01-15T06:33:26.250Z,997.27
2019-01-15T06:34:26.239Z,997.23
2019-01-15T06:35:26.226Z,997.21
2019-01-15T06:36:26.213Z,997.18
2019-01-15T06:37:26.213Z,997.15
2019-01-15T06:38:26.192Z,997.16
2019-01-15T06:39:26.186Z,997.15
2019-01-15T06:40:26.171Z,997.19
2019-01-15T06:41:26.163Z,997.16
2019-01-15T06:42:26.152Z,997.17
2019-01-15T06:43:26.141Z,997.11
2019-01-15T06:44:26.129Z,997.20
2019-01-15T06:45:26.117Z,997.24
2019-01-15T06:46:26.121Z,997.29
2019-01-15T06:47:26.095Z,997.32
2019-01-15T06:48:26.087Z,997.33
2019-01-15T06:49:26.076Z,997.34
2019-01-15T06:50:26.066Z,997.31
2019-01-15T06:51:26.058Z,997.32
2019-01-15T06:52:26.045Z,997.31
2019-01-15T06:53:26.035Z,997.29
2019-01-15T06:54:26.027Z,997.29
2019-01-15T06:55:26.015Z,997.32
2019-01-15T06:56:25.999Z,997.28
2019-01-15T06:57:25.993Z,997.26
2019-01-15T06:58:25.981Z,997.24
2019-01-15T06:59:25.968Z,997.25
2019-01-15T07:00:25.962Z,997.21
2019-01-15T07:01:25.955Z,997.27
2019-01-15T07:02:25.938Z,997.28
2019-01-15T07:03:25.927Z,997.29
2019-01-15T07:04:25.914Z,997.32
2019-01-15T07:05:25.906Z,997.30
2019-01-15T07:06:25.895Z,997.31
2019-01-15T07:07:25.883Z,997.29
2019-01-15T07:08:25.874Z,997.32
2019-01-15T07:09:25.863Z,997.37
2019-01-15T07:10:25.855Z,997.36
2019-01-15T07:11:25.841Z,997.34
2019-01-15T07:12:25.831Z,997.36
2019-01-15T07:13:25.822Z,997.41
2019-01-15T07:14:25.825Z,997.42
2019-01-15T07:15:25.797Z,997.43
2019-01-15T07:16:25.787Z,997.41
2019-01-15T07:17:25.777Z,997.42
2019-01-15T07:18:25.769Z,997.46
2019-01-15T07:19:25.757Z,997.44
2019-01-15T07:20:25.745Z,997.46
2019-01-15T07:21:25.738Z,997.44
2019-01-15T07:22:25.725Z,997.43
2019-01-15T07:23:25.715Z,997.44
2019-01-15T07:24:25.703Z,997.46
2019-01-15T07:25:25.693Z,997.42
2019-01-15T07:26:25.683Z,997.45
2019-01-15T07:27:25.668Z,997.43
2019-01-15T07:28:25.667Z,997.49
2019-01-15T07:29:25.655Z,997.50
2019-01-15T07:30:25.648Z,997.45
2019-01-15T07:31:25.628Z,997.47
2019-01-15T07:32:25.618Z,997.54
2019-01-15T07:33:25.614Z,997.52
2019-01-15T07:34:25.599Z,997.52
2019-01-15T07:35:25.587Z,997.47
2019-01-15T07:36:25.580Z,997.51
2019-01-15T07:37:25.567Z,997.54
2019-01-15T07:38:25.559Z,997.52
2019-01-15T07:39:25.545Z,997.48
2019-01-15T07:40:25.535Z,997.48
2019-01-15T07:41:25.523Z,997.44
2019-01-15T07:42:25.520Z,997.49
2019-01-15T07:43:25.502Z,997.49
2019-01-15T07:44:25.492Z,997.51
2019-01-15T07:45:25.480Z,997.52
2019-01-15T07:46:25.471Z,997.56
2019-01-15T07:47:25.462Z,997.55
2019-01-15T07:48:25.451Z,997.56
2019-01-15T07:49:25.441Z,997.67
2019-01-15T07:50:25.427Z,997.61
2019-01-15T07:51:25.419Z,997.66
2019-01-15T07:52:25.407Z,997.66
2019-01-15T07:53:25.400Z,997.67
2019-01-15T07:54:25.391Z,997.69
2019-01-15T07:55:25.377Z,997.68
2019-01-15T07:56:25.364Z,997.64
2019-01-15T07:57:25.354Z,997.63
2019-01-15T07:58:25.345Z,997.65
2019-01-15T07:59:25.330Z,997.61
2019-01-15T08:00:25.323Z,997.64
2019-01-15T08:01:25.314Z,997.69
2019-01-15T08:02:25.304Z,997.64
2019-01-15T08:03:25.293Z,997.66
2019-01-15T08:04:25.280Z,997.67
2019-01-15T08:05:25.273Z,997.66
2019-01-15T08:06:25.266Z,997.66
2019-01-15T08:07:25.249Z,997.65
2019-01-15T08:08:25.236Z,997.64
2019-01-15T08:09:25.230Z,997.61
2019-01-15T08:10:25.217Z,997.64
2019-01-15T08:11:25.206Z,997.64
2019-01-15T08:12:25.200Z,997.64
2019-01-15T08:13:25.184Z,997.62
2019-01-15T08:14:25.172Z,997.64
2019-01-15T08:15:25.164Z,997.71
2019-01-15T08:16:25.155Z,997.69
2019-01-15T08:17:25.142Z,997.64
2019-01-15T08:18:25.133Z,997.67
2019-01-15T08:19:25.128Z,997.67
2019-01-15T08:20:25.109Z,997.64
2019-01-15T08:21:25.100Z,997.62
2019-01-15T08:22:25.090Z,997.59
2019-01-15T08:23:25.080Z,997.58
2019-01-15T08:24:25.092Z,997.62
2019-01-15T08:25:25.061Z,997.57
2019-01-15T08:26:25.048Z,997.60
2019-01-15T08:27:25.034Z,997.56
2019-01-15T08:28:25.031Z,997.60
2019-01-15T08:29:25.029Z,997.58
2019-01-15T08:30:25.004Z,997.53
2019-01-15T08:31:24.989Z,997.52
2019-01-15T08:32:24.990Z,997.52
2019-01-15T08:33:24.980Z,997.52
2019-01-15T08:34:24.972Z,997.52
2019-01-15T08:35:24.951Z,997.52
2019-01-15T08:36:24.940Z,997.55
2019-01-15T08:37:24.929Z,997.48
2019-01-15T08:38:24.920Z,997.50
2019-01-15T08:39:24.910Z,997.47
2019-01-15T08:40:24.896Z,997.47
2019-01-15T08:41:24.889Z,997.43
2019-01-15T08:42:24.879Z,997.49
2019-01-15T08:43:24.878Z,997.51
2019-01-15T08:44:24.855Z,997.47
2019-01-15T08:45:24.844Z,997.44
2019-01-15T08:46:24.839Z,997.46
2019-01-15T08:47:24.831Z,997.46
2019-01-15T08:48:24.812Z,997.43
2019-01-15T08:49:24.802Z,997.47
2019-01-15T08:50:24.797Z,997.48
2019-01-15T08:51:24.774Z,997.51
2019-01-15T08:52:24.770Z,997.50
2019-01-15T08:53:24.768Z,997.46
2019-01-15T08:54:26.248Z,997.48
2019-01-15T08:55:24.739Z,997.45
2019-01-15T08:56:24.736Z,997.42
2019-01-15T08:57:24.719Z,997.50
2019-01-15T08:58:24.708Z,997.46
2019-01-15T08:59:24.723Z,997.47
2019-01-15T09:00:24.683Z,997.44
2019-01-15T09:01:24.679Z,997.51
2019-01-15T09:02:24.666Z,997.45
2019-01-15T09:03:24.655Z,997.49
2019-01-15T09:04:24.646Z,997.48
2019-01-15T09:05:24.631Z,997.52
2019-01-15T09:06:24.628Z,997.55
2019-01-15T09:07:24.611Z,997.59
2019-01-15T09:08:24.601Z,997.56
2019-01-15T09:09:24.590Z,997.62
2019-01-15T09:10:24.581Z,997.62
2019-01-15T09:11:24.575Z,997.64
2019-01-15T09:12:24.558Z,997.66
2019-01-15T09:13:24.547Z,997.66
2019-01-15T09:14:26.977Z,997.59
2019-01-15T09:15:24.528Z,997.65
2019-01-15T09:16:24.516Z,997.62
2019-01-15T09:17:24.507Z,997.68
2019-01-15T09:18:24.495Z,997.69
2019-01-15T09:19:24.484Z,997.69
2019-01-15T09:20:24.486Z,997.66
2019-01-15T09:21:24.466Z,997.68
2019-01-15T09:22:24.457Z,997.62
2019-01-15T09:23:24.445Z,997.61
2019-01-15T09:24:24.430Z,997.66
2019-01-15T09:25:24.427Z,997.63
2019-01-15T09:26:24.410Z,997.62
2019-01-15T09:27:24.402Z,997.63
2019-01-15T09:28:24.389Z,997.64
2019-01-15T09:29:24.379Z,997.61
2019-01-15T09:30:24.372Z,997.64
2019-01-15T09:31:24.360Z,997.54
2019-01-15T09:32:24.350Z,997.56
2019-01-15T09:33:24.335Z,997.48
2019-01-15T09:34:24.328Z,997.57
2019-01-15T09:35:24.316Z,997.53
2019-01-15T09:36:24.306Z,997.56
2019-01-15T09:37:24.294Z,997.56
2019-01-15T09:38:24.284Z,997.52
2019-01-15T09:39:24.292Z,997.46
2019-01-15T09:40:24.263Z,997.45
2019-01-15T09:41:24.248Z,997.48
2019-01-15T09:42:24.239Z,997.46
2019-01-15T09:43:24.235Z,997.55
2019-01-15T09:44:24.229Z,997.55
2019-01-15T09:45:24.209Z,997.53
2019-01-15T09:46:24.203Z,997.56
2019-01-15T09:47:24.189Z,997.50
2019-01-15T09:48:24.182Z,997.51
2019-01-15T09:49:24.171Z,997.50
2019-01-15T09:50:24.160Z,997.51
2019-01-15T09:51:24.147Z,997.48
2019-01-15T09:52:24.230Z,997.48
2019-01-15T09:53:24.131Z,997.45
2019-01-15T09:54:24.116Z,997.43
2019-01-15T09:55:24.108Z,997.46
2019-01-15T09:56:24.094Z,997.42
2019-01-15T09:57:24.086Z,997.48
2019-01-15T09:58:24.076Z,997.46
2019-01-15T09:59:24.064Z,997.45
2019-01-15T10:00:24.049Z,997.43
2019-01-15T10:01:24.047Z,997.41
2019-01-15T10:02:24.162Z,997.45
2019-01-15T10:03:24.023Z,997.39
2019-01-15T10:04:24.010Z,997.43
2019-01-15T10:05:24.000Z,997.41
2019-01-15T10:06:23.987Z,997.46
2019-01-15T10:07:23.977Z,997.48
2019-01-15T10:08:23.971Z,997.46
2019-01-15T10:09:23.959Z,997.42
2019-01-15T10:10:23.946Z,997.47
2019-01-15T10:11:23.934Z,997.42
2019-01-15T10:12:23.924Z,997.41
2019-01-15T10:13:23.913Z,997.43
2019-01-15T10:14:23.908Z,997.42
2019-01-15T10:15:23.892Z,997.42
2019-01-15T10:16:23.886Z,997.41
2019-01-15T10:17:23.871Z,997.41
2019-01-15T10:18:23.862Z,997.45
2019-01-15T10:19:23.850Z,997.41
2019-01-15T10:20:23.839Z,997.46
2019-01-15T10:21:23.830Z,997.44
2019-01-15T10:22:23.818Z,997.44
2019-01-15T10:23:23.811Z,997.36
2019-01-15T10:24:23.797Z,997.41
2019-01-15T10:25:23.788Z,997.38
2019-01-15T10:26:23.778Z,997.39
2019-01-15T10:27:23.764Z,997.32
2019-01-15T10:28:23.765Z,997.41
2019-01-15T10:29:23.745Z,997.46
2019-01-15T10:30:23.735Z,997.43
2019-01-15T10:31:23.720Z,997.45
2019-01-15T10:32:23.713Z,997.44
2019-01-15T10:33:23.704Z,997.38
2019-01-15T10:34:23.693Z,997.39
2019-01-15T10:35:23.680Z,997.30
2019-01-15T10:36:23.671Z,997.29
2019-01-15T10:37:23.663Z,997.29
2019-01-15T10:38:23.653Z,997.27
2019-01-15T10:39:23.640Z,997.23
2019-01-15T10:40:23.628Z,997.25
2019-01-15T10:41:23.616Z,997.22
2019-01-15T10:42:23.613Z,997.25
2019-01-15T10:43:23.595Z,997.20
2019-01-15T10:44:23.585Z,997.20
2019-01-15T10:45:23.574Z,997.09
2019-01-15T10:46:23.566Z,997.02
2019-01-15T10:47:23.556Z,997.00
2019-01-15T10:48:23.553Z,997.04
2019-01-15T10:49:23.533Z,997.06
2019-01-15T10:50:23.526Z,997.05
2019-01-15T10:51:23.514Z,997.00
2019-01-15T10:52:23.502Z,996.98
2019-01-15T10:53:23.492Z,997.00
2019-01-15T10:54:23.479Z,997.02
2019-01-15T10:55:23.470Z,997.04
2019-01-15T10:56:23.458Z,997.04
2019-01-15T10:57:23.448Z,997.04
2019-01-15T10:58:23.444Z,997.01
2019-01-15T10:59:23.423Z,997.00
2019-01-15T11:00:23.427Z,996.92
2019-01-15T11:01:23.416Z,996.94
2019-01-15T11:02:23.395Z,996.97
2019-01-15T11:03:23.384Z,996.94
2019-01-15T11:04:23.375Z,996.92
2019-01-15T11:05:23.363Z,996.87
2019-01-15T11:06:23.364Z,996.91
2019-01-15T11:07:23.346Z,996.90
2019-01-15T11:08:23.334Z,996.89
2019-01-15T11:09:23.323Z,996.85
2019-01-15T11:10:23.310Z,996.90
2019-01-15T11:11:23.299Z,996.86
2019-01-15T11:12:23.292Z,996.86
2019-01-15T11:13:23.281Z,996.87
2019-01-15T11:14:23.270Z,996.82
2019-01-15T11:15:23.257Z,996.81
2019-01-15T11:16:23.247Z,996.77
2019-01-15T11:17:23.238Z,996.78
2019-01-15T11:18:23.230Z,996.79
2019-01-15T11:19:23.216Z,996.82
2019-01-15T11:20:23.212Z,996.86
2019-01-15T11:21:23.195Z,996.78
2019-01-15T11:22:23.186Z,996.80
2019-01-15T11:23:23.172Z,996.75
2019-01-15T11:24:23.164Z,996.73
2019-01-15T11:25:23.153Z,996.74
2019-01-15T11:26:23.142Z,996.74
2019-01-15T11:27:23.135Z,996.71
2019-01-15T11:28:23.121Z,996.70
2019-01-15T11:29:23.113Z,996.67
2019-01-15T11:30:23.100Z,996.60
2019-01-15T11:31:23.089Z,996.70
2019-01-15T11:32:23.080Z,996.64
2019-01-15T11:33:23.068Z,996.61
2019-01-15T11:34:23.059Z,996.60
2019-01-15T11:35:23.051Z,996.60
2019-01-15T11:36:23.035Z,996.61
2019-01-15T11:37:23.025Z,996.62
2019-01-15T11:38:23.025Z,996.60
2019-01-15T11:39:23.011Z,996.57
2019-01-15T11:40:22.993Z,996.61
2019-01-15T11:41:22.984Z,996.60
2019-01-15T11:42:22.972Z,996.56
2019-01-15T11:43:22.965Z,996.56
2019-01-15T11:44:22.953Z,996.58
2019-01-15T11:45:22.942Z,996.54
2019-01-15T11:46:22.931Z,996.52
2019-01-15T11:47:22.918Z,996.60
2019-01-15T11:48:22.916Z,996.59
2019-01-15T11:49:22.898Z,996.55
2019-01-15T11:50:22.891Z,996.52
2019-01-15T11:51:22.877Z,996.51
2019-01-15T11:52:22.867Z,996.57
2019-01-15T11:53:22.859Z,996.49
2019-01-15T11:54:22.846Z,996.51
2019-01-15T11:55:22.834Z,996.51
2019-01-15T11:56:22.824Z,996.49
2019-01-15T11:57:22.815Z,996.42
2019-01-15T11:58:22.804Z,996.40
2019-01-15T11:59:22.794Z,996.39
2019-01-15T12:00:22.783Z,996.38
2019-01-15T12:01:22.772Z,996.35
2019-01-15T12:02:22.760Z,996.33
2019-01-15T12:03:22.750Z,996.38
2019-01-15T12:04:22.739Z,996.37
2019-01-15T12:05:22.735Z,996.37
2019-01-15T12:06:22.717Z,996.31
2019-01-15T12:07:22.713Z,996.30
2019-01-15T12:08:22.698Z,996.32
2019-01-15T12:09:22.689Z,996.27
2019-01-15T12:10:22.676Z,996.27
2019-01-15T12:11:22.667Z,996.31
2019-01-15T12:12:22.675Z,996.28
2019-01-15T12:13:22.644Z,996.26
2019-01-15T12:14:22.635Z,996.24
2019-01-15T12:15:22.623Z,996.24
2019-01-15T12:16:22.613Z,996.25
2019-01-15T12:17:22.602Z,996.22
2019-01-15T12:18:22.592Z,996.18
2019-01-15T12:19:22.580Z,996.23
2019-01-15T12:20:22.582Z,996.20
2019-01-15T12:21:22.568Z,996.20
2019-01-15T12:22:22.561Z,996.13
2019-01-15T12:23:22.538Z,996.21
2019-01-15T12:24:22.524Z,996.14
2019-01-15T12:25:22.519Z,996.16
2019-01-15T12:26:22.513Z,996.12
2019-01-15T12:27:22.496Z,996.16
2019-01-15T12:28:22.487Z,996.17